TRA8M LFKB-EHRD
Flight info
| Callsign | TRA8M |
|---|---|
| Flight time | 1h 45m |
| Altitude | 40000 |
| Route | AKUTI UM616 PIGOS DCT BARSO DCT IRMAR DCT KINES DCT VANAS DCT MOBLO DCT UBIMA DCT GILIR DCT PENDU DCT IXILU DCT EPL DCT ROUSY DCT RITAX M624 BUB Y28 HELEN |
| Aircraft | B738/M-SDE2E3FGHIJ1P2RWXY/LB1 |
Departure
| Time | 2026-04-20 18:26 |
|---|---|
| Airport | Bastia-Poretta International airport (LFKB) |
Arrival
| Time | 2026-04-20 20:11 |
|---|---|
| Airport | Rotterdam The Hague Airport (EHRD) |
| Time | Latitude | Longitude | Altitude | Speed | Heading |
|---|---|---|---|---|---|
| 2026-04-20 18:11 | 42.54883 | 9.48151 | 34 ft | 0 kts | 253° |
| 2026-04-20 18:20 | 42.54884 | 9.48154 | 34 ft | 3 kts | 253° |
| 2026-04-20 18:20 | 42.54892 | 9.48188 | 34 ft | 4 kts | 253° |
| 2026-04-20 18:20 | 42.54898 | 9.48216 | 33 ft | 4 kts | 246° |
| 2026-04-20 18:21 | 42.54911 | 9.48240 | 32 ft | 4 kts | 192° |
| 2026-04-20 18:21 | 42.54933 | 9.48235 | 32 ft | 4 kts | 163° |
| 2026-04-20 18:21 | 42.54939 | 9.48233 | 32 ft | 1 kts | 163° |
| 2026-04-20 18:23 | 42.54924 | 9.48239 | 34 ft | 6 kts | 163° |
| 2026-04-20 18:23 | 42.54857 | 9.48267 | 34 ft | 14 kts | 163° |
| 2026-04-20 18:23 | 42.54745 | 9.48314 | 33 ft | 19 kts | 163° |
| 2026-04-20 18:24 | 42.54622 | 9.48365 | 34 ft | 18 kts | 162° |
| 2026-04-20 18:24 | 42.54504 | 9.48415 | 34 ft | 17 kts | 163° |
| 2026-04-20 18:24 | 42.54386 | 9.48421 | 33 ft | 17 kts | 165° |
| 2026-04-20 18:24 | 42.54276 | 9.48467 | 34 ft | 16 kts | 162° |
| 2026-04-20 18:25 | 42.54175 | 9.48516 | 34 ft | 15 kts | 148° |
| 2026-04-20 18:25 | 42.54125 | 9.48635 | 34 ft | 15 kts | 95° |
| 2026-04-20 18:25 | 42.54163 | 9.48758 | 34 ft | 14 kts | 45° |
| 2026-04-20 18:25 | 42.54247 | 9.48800 | 32 ft | 14 kts | 341° |
| 2026-04-20 18:26 | 42.54441 | 9.48719 | 33 ft | 61 kts | 342° |
| 2026-04-20 18:26 | 42.55090 | 9.48447 | 35 ft | 131 kts | 343° |
| 2026-04-20 18:26 | 42.56120 | 9.48013 | 239 ft | 167 kts | 344° |
| 2026-04-20 18:26 | 42.57180 | 9.47557 | 1139 ft | 159 kts | 343° |
| 2026-04-20 18:27 | 42.58264 | 9.47094 | 1811 ft | 166 kts | 343° |
| 2026-04-20 18:27 | 42.59447 | 9.46600 | 2264 ft | 194 kts | 343° |
| 2026-04-20 18:27 | 42.60838 | 9.46024 | 2529 ft | 222 kts | 342° |
| 2026-04-20 18:27 | 42.62383 | 9.45378 | 2876 ft | 241 kts | 342° |
| 2026-04-20 18:28 | 42.63982 | 9.44424 | 3167 ft | 260 kts | 320° |
| 2026-04-20 18:28 | 42.65086 | 9.42498 | 3984 ft | 259 kts | 301° |
| 2026-04-20 18:28 | 42.66357 | 9.40777 | 4998 ft | 260 kts | 320° |
| 2026-04-20 18:28 | 42.67795 | 9.39262 | 5879 ft | 263 kts | 317° |
| 2026-04-20 18:29 | 42.69196 | 9.37666 | 6767 ft | 264 kts | 316° |
| 2026-04-20 18:29 | 42.70118 | 9.36588 | 7380 ft | 264 kts | 316° |
| 2026-04-20 18:29 | 42.71513 | 9.34940 | 8255 ft | 267 kts | 315° |
| 2026-04-20 18:29 | 42.72968 | 9.33352 | 9114 ft | 272 kts | 322° |
| 2026-04-20 18:30 | 42.74593 | 9.31995 | 9962 ft | 275 kts | 326° |
| 2026-04-20 18:30 | 42.76296 | 9.30683 | 10435 ft | 292 kts | 327° |
| 2026-04-20 18:30 | 42.78147 | 9.29269 | 10613 ft | 317 kts | 327° |
| 2026-04-20 18:30 | 42.80138 | 9.27741 | 10835 ft | 338 kts | 327° |
| 2026-04-20 18:31 | 42.82216 | 9.26135 | 11387 ft | 347 kts | 327° |
| 2026-04-20 18:31 | 42.84316 | 9.24503 | 12143 ft | 349 kts | 327° |
| 2026-04-20 18:31 | 42.86428 | 9.22851 | 12938 ft | 352 kts | 327° |
| 2026-04-20 18:31 | 42.88558 | 9.21176 | 13718 ft | 355 kts | 327° |
| 2026-04-20 18:32 | 42.90706 | 9.19482 | 14432 ft | 358 kts | 327° |
| 2026-04-20 18:32 | 42.92867 | 9.17773 | 15184 ft | 361 kts | 327° |
| 2026-04-20 18:32 | 42.95048 | 9.16045 | 15937 ft | 363 kts | 327° |
| 2026-04-20 18:32 | 42.97240 | 9.14307 | 16692 ft | 366 kts | 327° |
| 2026-04-20 18:33 | 42.99451 | 9.12551 | 17415 ft | 369 kts | 327° |
| 2026-04-20 18:33 | 43.01679 | 9.10780 | 18128 ft | 372 kts | 327° |
| 2026-04-20 18:33 | 43.03929 | 9.08990 | 18750 ft | 376 kts | 327° |
| 2026-04-20 18:33 | 43.06197 | 9.07185 | 19348 ft | 379 kts | 327° |
| 2026-04-20 18:34 | 43.08487 | 9.05360 | 19938 ft | 383 kts | 326° |
| 2026-04-20 18:34 | 43.10796 | 9.03519 | 20523 ft | 386 kts | 326° |
| 2026-04-20 18:34 | 43.13127 | 9.01658 | 21091 ft | 389 kts | 326° |
| 2026-04-20 18:34 | 43.15479 | 8.99780 | 21639 ft | 393 kts | 326° |
| 2026-04-20 18:35 | 43.17818 | 8.97910 | 22169 ft | 397 kts | 326° |
| 2026-04-20 18:35 | 43.20232 | 8.95953 | 22723 ft | 399 kts | 322° |
| 2026-04-20 18:35 | 43.22280 | 8.93432 | 23217 ft | 396 kts | 307° |
| 2026-04-20 18:35 | 43.23728 | 8.90303 | 23698 ft | 395 kts | 292° |
| 2026-04-20 18:36 | 43.24709 | 8.86785 | 24161 ft | 396 kts | 288° |
| 2026-04-20 18:36 | 43.25605 | 8.83203 | 24597 ft | 398 kts | 288° |
| 2026-04-20 18:36 | 43.26494 | 8.79596 | 25024 ft | 401 kts | 288° |
| 2026-04-20 18:36 | 43.27402 | 8.75965 | 25437 ft | 403 kts | 288° |
| 2026-04-20 18:37 | 43.28328 | 8.72318 | 25851 ft | 406 kts | 289° |
| 2026-04-20 18:37 | 43.29270 | 8.68655 | 26257 ft | 408 kts | 289° |
| 2026-04-20 18:37 | 43.30219 | 8.64975 | 26645 ft | 411 kts | 289° |
| 2026-04-20 18:37 | 43.31176 | 8.61265 | 27035 ft | 413 kts | 289° |
| 2026-04-20 18:38 | 43.32133 | 8.57539 | 27420 ft | 415 kts | 289° |
| 2026-04-20 18:38 | 43.33094 | 8.53788 | 27786 ft | 417 kts | 289° |
| 2026-04-20 18:38 | 43.34057 | 8.50020 | 28141 ft | 420 kts | 289° |
| 2026-04-20 18:38 | 43.35023 | 8.46229 | 28487 ft | 422 kts | 289° |
| 2026-04-20 18:39 | 43.35994 | 8.42416 | 28831 ft | 424 kts | 289° |
| 2026-04-20 18:39 | 43.36970 | 8.38579 | 29170 ft | 426 kts | 289° |
| 2026-04-20 18:39 | 43.37947 | 8.34731 | 29521 ft | 427 kts | 289° |
| 2026-04-20 18:39 | 43.38924 | 8.30876 | 29989 ft | 426 kts | 289° |
| 2026-04-20 18:40 | 43.39893 | 8.27048 | 30461 ft | 422 kts | 289° |
| 2026-04-20 18:40 | 43.40852 | 8.23252 | 30960 ft | 419 kts | 289° |
| 2026-04-20 18:40 | 43.41805 | 8.19476 | 31365 ft | 417 kts | 288° |
| 2026-04-20 18:40 | 43.42754 | 8.15708 | 31749 ft | 416 kts | 288° |
| 2026-04-20 18:41 | 43.43699 | 8.11949 | 32131 ft | 415 kts | 288° |
| 2026-04-20 18:41 | 43.44638 | 8.08206 | 32556 ft | 413 kts | 288° |
| 2026-04-20 18:41 | 43.45571 | 8.04484 | 32975 ft | 411 kts | 288° |
| 2026-04-20 18:41 | 43.46499 | 8.00775 | 33372 ft | 409 kts | 288° |
| 2026-04-20 18:42 | 43.47422 | 7.97082 | 33747 ft | 408 kts | 288° |
| 2026-04-20 18:42 | 43.48342 | 7.93392 | 34093 ft | 407 kts | 288° |
| 2026-04-20 18:42 | 43.49258 | 7.89713 | 34390 ft | 406 kts | 288° |
| 2026-04-20 18:42 | 43.50173 | 7.86032 | 34658 ft | 406 kts | 288° |
| 2026-04-20 18:43 | 43.51085 | 7.82358 | 34945 ft | 405 kts | 288° |
| 2026-04-20 18:43 | 43.51995 | 7.78689 | 35241 ft | 404 kts | 288° |
| 2026-04-20 18:43 | 43.52890 | 7.75072 | 35507 ft | 404 kts | 288° |
| 2026-04-20 18:43 | 43.53795 | 7.71406 | 35775 ft | 404 kts | 288° |
| 2026-04-20 18:44 | 43.54698 | 7.67744 | 36048 ft | 403 kts | 288° |
| 2026-04-20 18:44 | 43.55599 | 7.64087 | 36320 ft | 403 kts | 288° |
| 2026-04-20 18:44 | 43.56460 | 7.60584 | 36565 ft | 402 kts | 288° |
| 2026-04-20 18:44 | 43.57357 | 7.56931 | 36827 ft | 402 kts | 288° |
| 2026-04-20 18:45 | 43.58253 | 7.53275 | 37083 ft | 402 kts | 288° |
| 2026-04-20 18:45 | 43.59146 | 7.49629 | 37335 ft | 401 kts | 288° |
| 2026-04-20 18:45 | 43.60037 | 7.45984 | 37584 ft | 401 kts | 288° |
| 2026-04-20 18:45 | 43.60958 | 7.42355 | 37823 ft | 401 kts | 293° |
| 2026-04-20 18:46 | 43.62322 | 7.38994 | 38026 ft | 403 kts | 303° |
| 2026-04-20 18:46 | 43.64069 | 7.35980 | 38283 ft | 404 kts | 310° |
| 2026-04-20 18:46 | 43.66148 | 7.33358 | 38470 ft | 408 kts | 321° |
| 2026-04-20 18:46 | 43.68502 | 7.31150 | 38677 ft | 409 kts | 323° |
| 2026-04-20 18:47 | 43.70889 | 7.29005 | 38824 ft | 410 kts | 323° |
| 2026-04-20 18:47 | 43.73289 | 7.26866 | 38945 ft | 411 kts | 323° |
| 2026-04-20 18:47 | 43.75687 | 7.24716 | 39098 ft | 411 kts | 323° |
| 2026-04-20 18:47 | 43.78079 | 7.22553 | 39248 ft | 412 kts | 323° |
| 2026-04-20 18:48 | 43.80475 | 7.20370 | 39386 ft | 412 kts | 323° |
| 2026-04-20 18:48 | 43.82869 | 7.18177 | 39538 ft | 412 kts | 323° |
| 2026-04-20 18:48 | 43.85259 | 7.15980 | 39693 ft | 413 kts | 323° |
| 2026-04-20 18:48 | 43.87651 | 7.13778 | 39809 ft | 413 kts | 323° |
| 2026-04-20 18:49 | 43.92454 | 7.09347 | 39905 ft | 416 kts | 323° |
| 2026-04-20 18:49 | 43.97262 | 7.04906 | 39901 ft | 414 kts | 322° |
| 2026-04-20 18:50 | 44.02052 | 7.00473 | 39930 ft | 413 kts | 322° |
| 2026-04-20 18:50 | 44.06806 | 6.96065 | 39940 ft | 413 kts | 322° |
| 2026-04-20 18:51 | 44.11607 | 6.91669 | 39922 ft | 415 kts | 327° |
| 2026-04-20 18:51 | 44.17008 | 6.88713 | 39934 ft | 421 kts | 341° |
| 2026-04-20 18:52 | 44.22871 | 6.87566 | 39924 ft | 427 kts | 349° |
| 2026-04-20 18:52 | 44.28805 | 6.86753 | 39920 ft | 430 kts | 349° |
| 2026-04-20 18:53 | 44.34755 | 6.85908 | 39916 ft | 429 kts | 348° |
| 2026-04-20 18:53 | 44.40690 | 6.85019 | 39948 ft | 430 kts | 348° |
| 2026-04-20 18:54 | 44.46659 | 6.84108 | 39941 ft | 431 kts | 348° |
| 2026-04-20 18:54 | 44.52625 | 6.83199 | 39952 ft | 432 kts | 348° |
| 2026-04-20 18:55 | 44.58599 | 6.82287 | 39947 ft | 433 kts | 348° |
| 2026-04-20 18:55 | 44.64588 | 6.81369 | 39947 ft | 433 kts | 349° |
| 2026-04-20 18:56 | 44.70577 | 6.80450 | 39955 ft | 433 kts | 349° |
| 2026-04-20 18:56 | 44.76568 | 6.79529 | 39949 ft | 433 kts | 348° |
| 2026-04-20 18:57 | 44.82569 | 6.78726 | 39958 ft | 434 kts | 351° |
| 2026-04-20 18:57 | 44.88602 | 6.78344 | 39961 ft | 434 kts | 353° |
| 2026-04-20 18:58 | 44.94636 | 6.78018 | 39964 ft | 432 kts | 352° |
| 2026-04-20 18:58 | 45.00636 | 6.77650 | 39954 ft | 430 kts | 352° |
| 2026-04-20 18:59 | 45.06610 | 6.77257 | 39950 ft | 430 kts | 352° |
| 2026-04-20 18:59 | 45.12584 | 6.76861 | 39989 ft | 431 kts | 352° |
| 2026-04-20 19:00 | 45.18580 | 6.76464 | 39987 ft | 432 kts | 352° |
| 2026-04-20 19:00 | 45.24598 | 6.76064 | 39982 ft | 434 kts | 352° |
| 2026-04-20 19:01 | 45.30597 | 6.75667 | 39999 ft | 435 kts | 352° |
| 2026-04-20 19:01 | 45.36698 | 6.75268 | 40002 ft | 437 kts | 352° |
| 2026-04-20 19:02 | 45.42788 | 6.74884 | 40014 ft | 439 kts | 352° |
| 2026-04-20 19:02 | 45.48897 | 6.74490 | 40014 ft | 440 kts | 352° |
| 2026-04-20 19:03 | 45.54981 | 6.74078 | 40012 ft | 441 kts | 352° |
| 2026-04-20 19:03 | 45.61137 | 6.73657 | 40001 ft | 439 kts | 352° |
| 2026-04-20 19:04 | 45.67188 | 6.73244 | 40029 ft | 439 kts | 352° |
| 2026-04-20 19:04 | 45.73321 | 6.72828 | 40006 ft | 441 kts | 352° |
| 2026-04-20 19:05 | 45.79436 | 6.72407 | 40012 ft | 440 kts | 352° |
| 2026-04-20 19:05 | 45.85530 | 6.71988 | 40010 ft | 438 kts | 352° |
| 2026-04-20 19:06 | 45.91601 | 6.71567 | 40016 ft | 436 kts | 352° |
| 2026-04-20 19:06 | 45.97659 | 6.71147 | 40016 ft | 436 kts | 352° |
| 2026-04-20 19:07 | 46.03717 | 6.70722 | 40018 ft | 435 kts | 352° |
| 2026-04-20 19:07 | 46.09753 | 6.70300 | 40019 ft | 434 kts | 352° |
| 2026-04-20 19:08 | 46.18377 | 6.67449 | 40031 ft | 422 kts | 336° |
| 2026-04-20 19:09 | 46.23917 | 6.64677 | 40014 ft | 421 kts | 336° |
| 2026-04-20 19:09 | 46.29462 | 6.61926 | 40025 ft | 422 kts | 336° |
| 2026-04-20 19:10 | 46.35016 | 6.59203 | 40016 ft | 422 kts | 337° |
| 2026-04-20 19:10 | 46.40576 | 6.56484 | 40029 ft | 422 kts | 337° |
| 2026-04-20 19:11 | 46.46138 | 6.53760 | 40022 ft | 422 kts | 337° |
| 2026-04-20 19:11 | 46.51694 | 6.51033 | 40028 ft | 422 kts | 337° |
| 2026-04-20 19:12 | 46.57251 | 6.48298 | 40030 ft | 422 kts | 337° |
| 2026-04-20 19:12 | 46.62812 | 6.45556 | 40035 ft | 422 kts | 337° |
| 2026-04-20 19:13 | 46.68327 | 6.42830 | 40024 ft | 422 kts | 337° |
| 2026-04-20 19:13 | 46.73925 | 6.40058 | 40039 ft | 422 kts | 337° |
| 2026-04-20 19:14 | 46.79447 | 6.37317 | 40053 ft | 422 kts | 337° |
| 2026-04-20 19:14 | 46.85009 | 6.34550 | 40052 ft | 423 kts | 337° |
| 2026-04-20 19:15 | 46.90584 | 6.31770 | 40052 ft | 423 kts | 337° |
| 2026-04-20 19:15 | 46.96155 | 6.28987 | 40049 ft | 423 kts | 337° |
| 2026-04-20 19:16 | 47.01731 | 6.26195 | 40056 ft | 424 kts | 337° |
| 2026-04-20 19:16 | 47.07275 | 6.23305 | 40050 ft | 421 kts | 332° |
| 2026-04-20 19:17 | 47.12536 | 6.19570 | 40058 ft | 420 kts | 329° |
| 2026-04-20 19:17 | 47.16907 | 6.16331 | 40052 ft | 420 kts | 330° |
| 2026-04-20 19:18 | 47.22151 | 6.12513 | 40056 ft | 421 kts | 330° |
| 2026-04-20 19:18 | 47.27411 | 6.08719 | 40056 ft | 421 kts | 330° |
| 2026-04-20 19:19 | 47.32695 | 6.05092 | 40051 ft | 425 kts | 338° |
| 2026-04-20 19:19 | 47.38518 | 6.03300 | 40057 ft | 434 kts | 353° |
| 2026-04-20 19:20 | 47.44578 | 6.03354 | 40065 ft | 436 kts | 356° |
| 2026-04-20 19:20 | 47.50654 | 6.03581 | 40066 ft | 437 kts | 356° |
| 2026-04-20 19:21 | 47.56731 | 6.03745 | 40075 ft | 437 kts | 356° |
| 2026-04-20 19:21 | 47.62814 | 6.03871 | 40064 ft | 437 kts | 356° |
| 2026-04-20 19:22 | 47.68900 | 6.03994 | 40078 ft | 438 kts | 356° |
| 2026-04-20 19:22 | 47.74992 | 6.04123 | 40077 ft | 438 kts | 356° |
| 2026-04-20 19:23 | 47.81084 | 6.04303 | 40076 ft | 438 kts | 356° |
| 2026-04-20 19:23 | 47.87183 | 6.04502 | 40080 ft | 438 kts | 357° |
| 2026-04-20 19:24 | 47.93280 | 6.04696 | 40085 ft | 438 kts | 357° |
| 2026-04-20 19:24 | 47.99382 | 6.04886 | 40085 ft | 439 kts | 357° |
| 2026-04-20 19:25 | 48.05485 | 6.05075 | 40099 ft | 439 kts | 357° |
| 2026-04-20 19:25 | 48.11593 | 6.05266 | 40102 ft | 439 kts | 357° |
| 2026-04-20 19:26 | 48.17705 | 6.05457 | 40104 ft | 439 kts | 357° |
| 2026-04-20 19:26 | 48.23816 | 6.05649 | 40106 ft | 439 kts | 357° |
| 2026-04-20 19:27 | 48.29930 | 6.05841 | 40105 ft | 439 kts | 357° |
| 2026-04-20 19:27 | 48.36039 | 6.06071 | 40106 ft | 439 kts | 358° |
| 2026-04-20 19:28 | 48.42141 | 6.06370 | 40104 ft | 439 kts | 358° |
| 2026-04-20 19:28 | 48.48250 | 6.06674 | 40131 ft | 439 kts | 358° |
| 2026-04-20 19:29 | 48.54353 | 6.06970 | 40130 ft | 438 kts | 358° |
| 2026-04-20 19:29 | 48.60403 | 6.07260 | 40129 ft | 438 kts | 358° |
| 2026-04-20 19:30 | 48.66494 | 6.07551 | 40132 ft | 438 kts | 358° |
| 2026-04-20 19:30 | 48.72589 | 6.07843 | 40131 ft | 438 kts | 358° |
| 2026-04-20 19:31 | 48.78677 | 6.08136 | 40133 ft | 438 kts | 358° |
| 2026-04-20 19:31 | 48.84765 | 6.08429 | 40127 ft | 438 kts | 358° |
| 2026-04-20 19:32 | 48.90856 | 6.08723 | 40132 ft | 438 kts | 358° |
| 2026-04-20 19:32 | 48.96938 | 6.09018 | 40131 ft | 437 kts | 358° |
| 2026-04-20 19:33 | 49.03020 | 6.09313 | 40135 ft | 437 kts | 358° |
| 2026-04-20 19:33 | 49.09108 | 6.09610 | 40135 ft | 438 kts | 358° |
| 2026-04-20 19:34 | 49.15201 | 6.09907 | 40132 ft | 438 kts | 358° |
| 2026-04-20 19:34 | 49.21302 | 6.10205 | 40137 ft | 439 kts | 358° |
| 2026-04-20 19:35 | 49.27408 | 6.10504 | 40134 ft | 439 kts | 358° |
| 2026-04-20 19:35 | 49.33522 | 6.10805 | 40144 ft | 440 kts | 358° |
| 2026-04-20 19:36 | 49.39645 | 6.11107 | 40149 ft | 440 kts | 358° |
| 2026-04-20 19:36 | 49.45766 | 6.11326 | 40148 ft | 439 kts | 353° |
| 2026-04-20 19:37 | 49.51685 | 6.09610 | 40159 ft | 431 kts | 339° |
| 2026-04-20 19:37 | 49.57370 | 6.06662 | 40162 ft | 431 kts | 338° |
| 2026-04-20 19:38 | 49.63059 | 6.03694 | 40160 ft | 432 kts | 338° |
| 2026-04-20 19:38 | 49.68774 | 6.00759 | 40154 ft | 433 kts | 339° |
| 2026-04-20 19:39 | 49.74494 | 5.97839 | 40156 ft | 434 kts | 339° |
| 2026-04-20 19:39 | 49.80225 | 5.94911 | 40157 ft | 434 kts | 339° |
| 2026-04-20 19:40 | 49.85959 | 5.91971 | 40156 ft | 434 kts | 339° |
| 2026-04-20 19:40 | 49.91701 | 5.89018 | 40158 ft | 435 kts | 339° |
| 2026-04-20 19:41 | 49.97444 | 5.86058 | 40168 ft | 435 kts | 339° |
| 2026-04-20 19:41 | 50.03183 | 5.83093 | 40172 ft | 435 kts | 339° |
| 2026-04-20 19:42 | 50.08578 | 5.79033 | 40178 ft | 430 kts | 324° |
| 2026-04-20 19:42 | 50.13048 | 5.73021 | 40180 ft | 428 kts | 314° |
| 2026-04-20 19:43 | 50.17292 | 5.66511 | 40178 ft | 428 kts | 314° |
| 2026-04-20 19:43 | 50.21546 | 5.59996 | 40179 ft | 429 kts | 314° |
| 2026-04-20 19:44 | 50.25818 | 5.53494 | 40184 ft | 430 kts | 314° |
| 2026-04-20 19:44 | 50.27968 | 5.50226 | 40031 ft | 433 kts | 314° |
| 2026-04-20 19:44 | 50.30144 | 5.46915 | 39543 ft | 437 kts | 314° |
| 2026-04-20 19:44 | 50.32317 | 5.43606 | 38972 ft | 435 kts | 314° |
| 2026-04-20 19:45 | 50.34481 | 5.40306 | 38298 ft | 434 kts | 314° |
| 2026-04-20 19:45 | 50.36637 | 5.37015 | 37635 ft | 432 kts | 314° |
| 2026-04-20 19:45 | 50.38779 | 5.33740 | 37020 ft | 429 kts | 314° |
| 2026-04-20 19:45 | 50.40914 | 5.30470 | 36389 ft | 428 kts | 314° |
| 2026-04-20 19:46 | 50.43039 | 5.27211 | 35724 ft | 427 kts | 314° |
| 2026-04-20 19:46 | 50.45161 | 5.23952 | 35037 ft | 427 kts | 314° |
| 2026-04-20 19:46 | 50.47280 | 5.20693 | 34354 ft | 427 kts | 314° |
| 2026-04-20 19:46 | 50.49401 | 5.17427 | 33568 ft | 426 kts | 314° |
| 2026-04-20 19:47 | 50.51508 | 5.14178 | 33001 ft | 421 kts | 314° |
| 2026-04-20 19:47 | 50.53581 | 5.10979 | 32478 ft | 415 kts | 314° |
| 2026-04-20 19:47 | 50.55625 | 5.07819 | 32003 ft | 409 kts | 314° |
| 2026-04-20 19:47 | 50.57634 | 5.04710 | 31525 ft | 403 kts | 314° |
| 2026-04-20 19:48 | 50.59617 | 5.01636 | 31056 ft | 397 kts | 314° |
| 2026-04-20 19:48 | 50.61571 | 4.98604 | 30593 ft | 392 kts | 314° |
| 2026-04-20 19:48 | 50.63501 | 4.95605 | 30099 ft | 388 kts | 314° |
| 2026-04-20 19:48 | 50.65403 | 4.92648 | 29606 ft | 381 kts | 314° |
| 2026-04-20 19:49 | 50.67276 | 4.89734 | 29171 ft | 374 kts | 314° |
| 2026-04-20 19:49 | 50.69117 | 4.86874 | 28720 ft | 369 kts | 314° |
| 2026-04-20 19:49 | 50.70931 | 4.84054 | 28262 ft | 364 kts | 314° |
| 2026-04-20 19:49 | 50.72726 | 4.81262 | 27803 ft | 361 kts | 314° |
| 2026-04-20 19:50 | 50.74502 | 4.78494 | 27347 ft | 357 kts | 314° |
| 2026-04-20 19:50 | 50.76261 | 4.75748 | 26917 ft | 356 kts | 314° |
| 2026-04-20 19:50 | 50.78034 | 4.72967 | 26433 ft | 363 kts | 314° |
| 2026-04-20 19:50 | 50.79837 | 4.70134 | 25728 ft | 369 kts | 314° |
| 2026-04-20 19:51 | 50.81665 | 4.67260 | 25524 ft | 372 kts | 314° |
| 2026-04-20 19:51 | 50.83508 | 4.64359 | 25139 ft | 376 kts | 314° |
| 2026-04-20 19:51 | 50.85359 | 4.61446 | 24658 ft | 373 kts | 315° |
| 2026-04-20 19:51 | 50.87190 | 4.58559 | 24171 ft | 370 kts | 315° |
| 2026-04-20 19:52 | 50.89011 | 4.55684 | 23693 ft | 368 kts | 314° |
| 2026-04-20 19:52 | 50.90680 | 4.52652 | 23210 ft | 363 kts | 305° |
| 2026-04-20 19:52 | 50.92025 | 4.49318 | 22859 ft | 356 kts | 302° |
| 2026-04-20 19:52 | 50.93285 | 4.46032 | 22432 ft | 352 kts | 301° |
| 2026-04-20 19:53 | 50.94545 | 4.42724 | 21974 ft | 349 kts | 302° |
| 2026-04-20 19:53 | 50.95795 | 4.39452 | 21525 ft | 346 kts | 302° |
| 2026-04-20 19:53 | 50.97040 | 4.36205 | 21084 ft | 344 kts | 302° |
| 2026-04-20 19:53 | 50.98287 | 4.32965 | 20638 ft | 344 kts | 302° |
| 2026-04-20 19:54 | 50.99535 | 4.29725 | 20196 ft | 344 kts | 302° |
| 2026-04-20 19:54 | 51.00793 | 4.26461 | 19763 ft | 350 kts | 302° |
| 2026-04-20 19:54 | 51.02074 | 4.23133 | 19315 ft | 353 kts | 302° |
| 2026-04-20 19:54 | 51.03351 | 4.19813 | 18866 ft | 351 kts | 302° |
| 2026-04-20 19:55 | 51.04617 | 4.16518 | 18424 ft | 348 kts | 302° |
| 2026-04-20 19:55 | 51.05870 | 4.13251 | 17951 ft | 344 kts | 302° |
| 2026-04-20 19:55 | 51.07103 | 4.10034 | 17516 ft | 340 kts | 302° |
| 2026-04-20 19:55 | 51.08325 | 4.06841 | 17070 ft | 336 kts | 303° |
| 2026-04-20 19:56 | 51.09212 | 4.04767 | 16654 ft | 336 kts | 309° |
| 2026-04-20 19:56 | 51.11392 | 4.01275 | 16336 ft | 339 kts | 322° |
| 2026-04-20 19:56 | 51.13277 | 3.99037 | 16246 ft | 337 kts | 324° |
| 2026-04-20 19:56 | 51.15174 | 3.96842 | 16225 ft | 337 kts | 324° |
| 2026-04-20 19:57 | 51.17061 | 3.94645 | 16216 ft | 336 kts | 324° |
| 2026-04-20 19:57 | 51.18941 | 3.92427 | 16216 ft | 336 kts | 324° |
| 2026-04-20 19:57 | 51.20796 | 3.90226 | 16205 ft | 326 kts | 324° |
| 2026-04-20 19:57 | 51.22606 | 3.88174 | 16196 ft | 312 kts | 332° |
| 2026-04-20 19:58 | 51.24582 | 3.87033 | 16212 ft | 296 kts | 351° |
| 2026-04-20 19:58 | 51.26596 | 3.86814 | 16224 ft | 286 kts | 358° |
| 2026-04-20 19:58 | 51.28595 | 3.86784 | 15909 ft | 291 kts | 359° |
| 2026-04-20 19:58 | 51.30677 | 3.86772 | 15049 ft | 308 kts | 359° |
| 2026-04-20 19:59 | 51.32880 | 3.86748 | 14162 ft | 321 kts | 359° |
| 2026-04-20 19:59 | 51.35122 | 3.86706 | 13239 ft | 322 kts | 359° |
| 2026-04-20 19:59 | 51.37354 | 3.86654 | 12437 ft | 320 kts | 359° |
| 2026-04-20 19:59 | 51.39561 | 3.86599 | 11797 ft | 314 kts | 360° |
| 2026-04-20 20:00 | 51.41666 | 3.87028 | 11445 ft | 299 kts | 18° |
| 2026-04-20 20:00 | 51.43459 | 3.88474 | 11275 ft | 280 kts | 33° |
| 2026-04-20 20:00 | 51.45026 | 3.90239 | 10927 ft | 271 kts | 36° |
| 2026-04-20 20:00 | 51.46525 | 3.92002 | 10562 ft | 264 kts | 36° |
| 2026-04-20 20:01 | 51.47994 | 3.93740 | 10174 ft | 261 kts | 36° |
| 2026-04-20 20:01 | 51.49453 | 3.95459 | 9737 ft | 259 kts | 36° |
| 2026-04-20 20:01 | 51.50901 | 3.97159 | 9288 ft | 257 kts | 36° |
| 2026-04-20 20:01 | 51.52347 | 3.98853 | 8865 ft | 258 kts | 36° |
| 2026-04-20 20:02 | 51.53798 | 4.00548 | 8544 ft | 257 kts | 36° |
| 2026-04-20 20:02 | 51.55263 | 4.02188 | 8236 ft | 256 kts | 30° |
| 2026-04-20 20:02 | 51.56824 | 4.03546 | 7892 ft | 256 kts | 28° |
| 2026-04-20 20:02 | 51.58426 | 4.04868 | 7474 ft | 260 kts | 27° |
| 2026-04-20 20:03 | 51.60036 | 4.06193 | 7250 ft | 259 kts | 27° |
| 2026-04-20 20:03 | 51.61626 | 4.07502 | 7224 ft | 255 kts | 27° |
| 2026-04-20 20:03 | 51.63204 | 4.08802 | 7228 ft | 257 kts | 27° |
| 2026-04-20 20:03 | 51.64801 | 4.10119 | 7228 ft | 260 kts | 27° |
| 2026-04-20 20:04 | 51.66417 | 4.11454 | 7194 ft | 258 kts | 27° |
| 2026-04-20 20:04 | 51.67971 | 4.12741 | 6732 ft | 254 kts | 27° |
| 2026-04-20 20:04 | 51.69540 | 4.14052 | 6175 ft | 255 kts | 27° |
| 2026-04-20 20:04 | 51.70604 | 4.14942 | 5784 ft | 255 kts | 27° |
| 2026-04-20 20:05 | 51.72176 | 4.16254 | 5264 ft | 253 kts | 27° |
| 2026-04-20 20:05 | 51.73730 | 4.17545 | 4759 ft | 251 kts | 27° |
| 2026-04-20 20:05 | 51.75280 | 4.18825 | 4392 ft | 248 kts | 27° |
| 2026-04-20 20:05 | 51.76809 | 4.20084 | 4185 ft | 246 kts | 27° |
| 2026-04-20 20:06 | 51.78302 | 4.21309 | 4050 ft | 233 kts | 27° |
| 2026-04-20 20:06 | 51.79710 | 4.22456 | 3942 ft | 220 kts | 27° |
| 2026-04-20 20:06 | 51.81054 | 4.23547 | 3710 ft | 211 kts | 27° |
| 2026-04-20 20:06 | 51.82325 | 4.24576 | 3619 ft | 197 kts | 27° |
| 2026-04-20 20:07 | 51.83496 | 4.25522 | 3534 ft | 180 kts | 27° |
| 2026-04-20 20:07 | 51.84571 | 4.26386 | 3405 ft | 165 kts | 27° |
| 2026-04-20 20:07 | 51.85546 | 4.27168 | 3260 ft | 154 kts | 27° |
| 2026-04-20 20:07 | 51.86501 | 4.27924 | 2922 ft | 152 kts | 27° |
| 2026-04-20 20:08 | 51.87451 | 4.28665 | 2595 ft | 151 kts | 27° |
| 2026-04-20 20:08 | 51.88393 | 4.29385 | 2265 ft | 149 kts | 27° |
| 2026-04-20 20:08 | 51.89317 | 4.30075 | 1932 ft | 145 kts | 27° |
| 2026-04-20 20:08 | 51.90132 | 4.30887 | 1857 ft | 131 kts | 43° |
| 2026-04-20 20:09 | 51.90770 | 4.32030 | 1677 ft | 139 kts | 51° |
| 2026-04-20 20:09 | 51.91362 | 4.33233 | 1477 ft | 133 kts | 54° |
| 2026-04-20 20:09 | 51.91872 | 4.34443 | 1299 ft | 128 kts | 56° |
| 2026-04-20 20:09 | 51.92357 | 4.35656 | 1126 ft | 128 kts | 56° |
| 2026-04-20 20:10 | 51.92839 | 4.36868 | 943 ft | 128 kts | 56° |
| 2026-04-20 20:10 | 51.93326 | 4.38091 | 759 ft | 128 kts | 56° |
| 2026-04-20 20:10 | 51.93813 | 4.39315 | 590 ft | 130 kts | 56° |
| 2026-04-20 20:10 | 51.94299 | 4.40538 | 403 ft | 130 kts | 57° |
| 2026-04-20 20:11 | 51.94786 | 4.41762 | 223 ft | 130 kts | 57° |
| 2026-04-20 20:11 | 51.95276 | 4.42989 | 42 ft | 130 kts | 58° |
| 2026-04-20 20:11 | 51.95715 | 4.44095 | 0 ft | 77 kts | 57° |
| 2026-04-20 20:11 | 51.95902 | 4.44559 | -3 ft | 15 kts | 57° |
| 2026-04-20 20:12 | 51.95882 | 4.44705 | -1 ft | 15 kts | 144° |
| 2026-04-20 20:12 | 51.95797 | 4.44763 | 0 ft | 12 kts | 197° |
| 2026-04-20 20:12 | 51.95743 | 4.44651 | 0 ft | 14 kts | 238° |
| 2026-04-20 20:13 | 51.95602 | 4.44297 | 0 ft | 20 kts | 238° |
| 2026-04-20 20:13 | 51.95526 | 4.44109 | 0 ft | 20 kts | 236° |
| 2026-04-20 20:13 | 51.95453 | 4.43926 | 0 ft | 19 kts | 237° |
| 2026-04-20 20:13 | 51.95383 | 4.43748 | 0 ft | 18 kts | 237° |
| 2026-04-20 20:14 | 51.95315 | 4.43578 | 1 ft | 16 kts | 237° |
| 2026-04-20 20:14 | 51.95256 | 4.43496 | 0 ft | 9 kts | 150° |
| 2026-04-20 20:14 | 51.95202 | 4.43554 | 0 ft | 11 kts | 147° |
| 2026-04-20 20:14 | 51.95117 | 4.43643 | 0 ft | 18 kts | 147° |
| 2026-04-20 20:15 | 51.95045 | 4.43704 | 0 ft | 6 kts | 191° |
| 2026-04-20 20:15 | 51.95016 | 4.43651 | 0 ft | 8 kts | 237° |
| 2026-04-20 20:15 | 51.94970 | 4.43540 | 0 ft | 14 kts | 236° |
| 2026-04-20 20:15 | 51.94963 | 4.43485 | 0 ft | 4 kts | 307° |
| 2026-04-20 20:16 | 51.94984 | 4.43458 | 0 ft | 4 kts | 326° |
| 2026-04-20 20:16 | 51.94994 | 4.43448 | 0 ft | 0 kts | 327° |